Fort Benjamin Harrison, Indiana
Current Conditions -  °F | °C
As of 5:35 AM on Thursday 18 Dec 2014 (Local Time) from KMQJ Reporting Station
Overcast Overcast  
Wind Chill: 25°   Ceiling: 1700
Heat Index: 25°   Visibility: 10mi
Dew Point: 14°   Wind: 0mph
Humidity: 64%   Direction: NA
Pressure: 30.26"   Gusts: NA
Location:  39.8642°N, 86.0139°W
Report Text: KMQJ 181035Z AUTO 00000KT 10SM OVC017 M04/M10 A3026 RMK AO1
Loading
Personal Weather Stations






























Interactive Weather Map New forecast layout! Learn more

10-Day Weather Forecast

Advertisements
Track Severe Weather on mobile